Swinoujscie, Poland
Current Conditions -  °F | °C
As of 6:00 AM on Sunday 26 Oct 2014 (Local Time) from EPSC Reporting Station
Haze Haze  
Wind Chill: 43°   Ceiling: 200
Heat Index: 43°   Visibility: 1.2mi
Dew Point: 43°   Wind: 2mph
Humidity: 100%   Direction: 140°SE
Pressure: 30.24"   Gusts: NA
Location:  53.91°N, 14.25°E
Report Text: EPSC 260400Z 14002KT 2000 BR BKN002 06/06 Q1024
Loading
Personal Weather Stations






























Interactive Weather Map
Tropical Storm Tracking
New forecast layout! Learn more

10-Day Weather Forecast

Advertisements
Track Severe Weather on mobile